createdAt,value
2018-11-14T00:01:22.545Z,8.80
2018-11-14T00:03:56.601Z,7.73
2018-11-14T00:06:30.462Z,7.43
2018-11-14T00:09:06.315Z,6.87
2018-11-14T00:11:40.666Z,5.40
2018-11-14T00:14:14.730Z,6.00
2018-11-14T00:16:48.682Z,7.03
2018-11-14T00:19:22.697Z,7.40
2018-11-14T00:21:56.590Z,8.07
2018-11-14T00:24:30.491Z,8.27
2018-11-14T00:27:04.398Z,7.47
2018-11-14T00:29:38.349Z,8.93
2018-11-14T00:32:12.221Z,7.00
2018-11-14T00:34:46.244Z,10.83
2018-11-14T00:37:20.275Z,8.87
2018-11-14T00:39:54.109Z,7.80
2018-11-14T00:42:27.969Z,10.93
2018-11-14T00:45:01.982Z,7.70
2018-11-14T00:47:35.898Z,9.43
2018-11-14T00:50:10.804Z,7.70
2018-11-14T00:52:45.198Z,14.13
2018-11-14T00:55:20.204Z,9.70
2018-11-14T00:57:54.086Z,12.90
2018-11-14T01:00:28.103Z,9.10
2018-11-14T01:03:02.147Z,10.30
2018-11-14T01:05:35.962Z,11.90
2018-11-14T01:08:09.992Z,7.53
2018-11-14T01:10:44.029Z,9.60
2018-11-14T01:13:18.129Z,12.13
2018-11-14T01:15:51.906Z,6.60
2018-11-14T01:18:26.354Z,8.73
2018-11-14T01:21:00.440Z,11.30
2018-11-14T01:23:34.548Z,5.93
2018-11-14T01:26:08.612Z,10.33
2018-11-14T01:28:42.565Z,7.83
2018-11-14T01:31:16.430Z,6.43
2018-11-14T01:33:50.422Z,7.33
2018-11-14T01:36:24.361Z,9.60
2018-11-14T01:38:58.196Z,13.30
2018-11-14T01:41:32.061Z,6.23
2018-11-14T01:44:06.163Z,7.73
2018-11-14T01:46:40.117Z,8.17
2018-11-14T01:49:14.102Z,9.50
2018-11-14T01:51:48.060Z,7.23
2018-11-14T01:54:21.985Z,5.50
2018-11-14T01:56:56.005Z,8.07
2018-11-14T01:59:29.887Z,9.40
2018-11-14T02:02:03.768Z,10.37
2018-11-14T02:04:37.714Z,8.00
2018-11-14T02:07:11.910Z,8.80
2018-11-14T02:09:45.942Z,9.43
2018-11-14T02:12:20.005Z,8.27
2018-11-14T02:14:54.038Z,9.37
2018-11-14T02:17:27.973Z,6.97
2018-11-14T02:20:01.971Z,7.60
2018-11-14T02:22:35.853Z,9.73
2018-11-14T02:25:10.422Z,11.20
2018-11-14T02:27:44.407Z,12.90
2018-11-14T02:30:21.755Z,9.13
2018-11-14T02:32:55.599Z,9.30
2018-11-14T02:35:29.573Z,11.40
2018-11-14T02:38:03.532Z,8.70
2018-11-14T02:40:37.388Z,9.23
2018-11-14T02:43:11.290Z,9.33
2018-11-14T02:45:45.156Z,13.40
2018-11-14T02:48:19.043Z,10.17
2018-11-14T02:50:58.542Z,8.90
2018-11-14T02:53:32.508Z,14.40
2018-11-14T02:56:07.963Z,13.47
2018-11-14T02:58:41.840Z,8.20
2018-11-14T03:01:15.824Z,10.13
2018-11-14T03:03:49.733Z,7.57
2018-11-14T03:06:23.568Z,7.23
2018-11-14T03:08:57.490Z,7.00
2018-11-14T03:11:31.370Z,9.80
2018-11-14T03:14:05.442Z,6.27
2018-11-14T03:16:39.421Z,12.10
2018-11-14T03:19:13.383Z,9.80
2018-11-14T03:21:49.306Z,8.27
2018-11-14T03:24:23.288Z,9.80
2018-11-14T03:26:57.281Z,15.70
2018-11-14T03:29:31.245Z,14.27
2018-11-14T03:32:05.222Z,13.70
2018-11-14T03:34:40.185Z,10.50
2018-11-14T03:37:14.068Z,10.53
2018-11-14T03:39:48.042Z,14.93
2018-11-14T03:42:22.041Z,9.40
2018-11-14T03:44:55.868Z,6.87
2018-11-14T03:47:29.854Z,9.73
2018-11-14T03:50:03.831Z,9.97
2018-11-14T03:52:37.835Z,13.50
2018-11-14T03:55:11.899Z,11.00
2018-11-14T03:57:45.754Z,13.40
2018-11-14T04:00:19.759Z,10.53
2018-11-14T04:02:53.774Z,8.27
2018-11-14T04:05:27.735Z,7.23
2018-11-14T04:08:01.717Z,9.97
2018-11-14T04:10:35.553Z,9.33
2018-11-14T04:13:09.395Z,12.00
2018-11-14T04:15:43.341Z,26.53
2018-11-14T04:18:17.345Z,19.63
2018-11-14T04:20:52.151Z,13.53
2018-11-14T04:23:26.233Z,11.30
2018-11-14T04:26:00.218Z,20.60
2018-11-14T04:28:34.185Z,79.60
2018-11-14T04:31:08.218Z,20.43
2018-11-14T04:33:42.281Z,13.83
2018-11-14T04:36:16.277Z,16.10
2018-11-14T04:38:50.258Z,8.80
2018-11-14T04:41:24.137Z,11.70
2018-11-14T04:43:58.029Z,17.03
2018-11-14T04:46:31.882Z,14.20
2018-11-14T04:49:05.751Z,13.13
2018-11-14T04:51:39.756Z,14.77
2018-11-14T04:54:13.854Z,17.83
2018-11-14T04:56:47.819Z,23.10
2018-11-14T04:59:21.842Z,15.97
2018-11-14T05:01:55.759Z,17.43
2018-11-14T05:04:29.661Z,15.93
2018-11-14T05:07:03.646Z,21.33
2018-11-14T05:09:37.623Z,18.70
2018-11-14T05:12:11.653Z,20.90
2018-11-14T05:14:45.482Z,13.73
2018-11-14T05:17:19.495Z,16.10
2018-11-14T05:19:53.507Z,8.73
2018-11-14T05:22:27.459Z,24.47
2018-11-14T05:25:01.333Z,18.43
2018-11-14T05:27:35.321Z,25.23
2018-11-14T05:30:10.334Z,18.90
2018-11-14T05:32:45.181Z,14.60
2018-11-14T05:35:19.266Z,21.23
2018-11-14T05:37:53.129Z,9.43
2018-11-14T05:40:27.097Z,20.37
2018-11-14T05:43:01.083Z,14.47
2018-11-14T05:45:35.063Z,18.27
2018-11-14T05:48:08.857Z,22.30
2018-11-14T05:50:42.854Z,20.77
2018-11-14T05:53:16.796Z,16.50
2018-11-14T05:55:50.734Z,28.80
2018-11-14T05:58:24.784Z,19.90
2018-11-14T06:00:58.666Z,19.00
2018-11-14T06:03:39.346Z,14.13
2018-11-14T06:06:13.345Z,18.43
2018-11-14T06:08:47.359Z,16.60
2018-11-14T06:11:21.469Z,15.50
2018-11-14T06:13:55.525Z,14.83
2018-11-14T06:16:29.521Z,16.03
2018-11-14T06:19:03.554Z,18.00
2018-11-14T06:21:37.595Z,27.43
2018-11-14T06:24:11.694Z,29.43
2018-11-14T06:26:45.630Z,22.43
2018-11-14T06:29:19.589Z,21.67
2018-11-14T06:31:53.512Z,35.00
2018-11-14T06:34:27.393Z,40.83
2018-11-14T06:37:02.438Z,35.23
2018-11-14T06:39:36.315Z,46.33
2018-11-14T06:42:10.985Z,49.90
2018-11-14T06:44:44.889Z,54.07
2018-11-14T06:47:18.946Z,61.60
2018-11-14T06:49:53.414Z,51.07
2018-11-14T06:52:27.332Z,45.37
2018-11-14T06:55:01.299Z,56.80
2018-11-14T06:57:35.506Z,37.53
2018-11-14T07:00:15.100Z,47.67
2018-11-14T07:02:49.296Z,112.80
2018-11-14T07:05:23.281Z,166.83
2018-11-14T07:07:57.403Z,132.53
2018-11-14T07:10:32.702Z,156.07
2018-11-14T07:13:08.642Z,85.53
2018-11-14T07:15:43.304Z,210.80
2018-11-14T07:18:17.503Z,101.33
2018-11-14T07:20:51.766Z,213.60
2018-11-14T07:23:25.960Z,220.43
2018-11-14T07:26:00.055Z,177.43
2018-11-14T07:28:34.259Z,204.27
2018-11-14T07:31:08.368Z,258.27
2018-11-14T07:33:42.418Z,217.50
2018-11-14T07:36:16.400Z,530.83
2018-11-14T07:38:51.484Z,414.20
2018-11-14T07:41:27.511Z,288.70
2018-11-14T07:44:01.697Z,274.97
2018-11-14T07:46:36.575Z,203.43
2018-11-14T07:49:10.848Z,166.93
2018-11-14T07:51:44.962Z,205.50
2018-11-14T07:54:19.103Z,155.03
2018-11-14T07:56:53.306Z,111.27
2018-11-14T07:59:27.389Z,92.30
2018-11-14T08:02:01.604Z,222.23
2018-11-14T08:04:35.688Z,221.70
2018-11-14T08:07:10.122Z,277.20
2018-11-14T08:09:44.268Z,152.47
2018-11-14T08:12:18.609Z,219.13
2018-11-14T08:14:52.767Z,157.20
2018-11-14T08:17:27.002Z,153.07
2018-11-14T08:20:01.670Z,125.13
2018-11-14T08:22:35.716Z,93.73
2018-11-14T08:25:09.994Z,85.73
2018-11-14T08:27:44.351Z,106.07
2018-11-14T08:30:19.768Z,106.40
2018-11-14T08:32:53.844Z,79.23
2018-11-14T08:35:28.096Z,87.27
2018-11-14T08:38:02.217Z,91.30
2018-11-14T08:40:36.453Z,68.47
2018-11-14T08:43:10.750Z,90.07
2018-11-14T08:45:44.808Z,76.50
2018-11-14T08:48:18.867Z,60.67
2018-11-14T08:50:52.988Z,87.83
2018-11-14T08:53:27.070Z,57.90
2018-11-14T08:56:01.185Z,49.10
2018-11-14T08:58:35.211Z,50.37
2018-11-14T09:01:09.323Z,47.43
2018-11-14T09:06:23.937Z,45.13
2018-11-14T09:08:58.070Z,41.73
2018-11-14T09:11:32.090Z,43.57
2018-11-14T09:14:06.117Z,45.30
2018-11-14T09:16:40.257Z,45.60
2018-11-14T09:19:14.431Z,37.07
2018-11-14T09:21:48.467Z,34.20
2018-11-14T09:24:22.556Z,28.27
2018-11-14T09:26:56.527Z,30.90
2018-11-14T09:29:30.493Z,38.87
2018-11-14T09:32:04.549Z,33.77
2018-11-14T09:34:38.600Z,31.57
2018-11-14T09:37:12.775Z,34.87
2018-11-14T09:39:46.973Z,33.83
2018-11-14T09:42:20.985Z,35.43
2018-11-14T09:44:55.217Z,33.73
2018-11-14T09:47:29.254Z,35.80
2018-11-14T09:50:03.389Z,35.87
2018-11-14T09:52:37.637Z,36.20
2018-11-14T09:55:12.412Z,35.43
2018-11-14T09:57:46.820Z,26.07
2018-11-14T10:00:23.100Z,33.03
2018-11-14T10:03:05.315Z,31.07
2018-11-14T10:05:39.334Z,34.67
2018-11-14T10:08:13.490Z,33.07
2018-11-14T10:10:47.809Z,35.50
2018-11-14T10:13:22.092Z,35.57
2018-11-14T10:15:56.039Z,36.00
2018-11-14T10:18:30.047Z,37.60
2018-11-14T10:21:04.141Z,37.17
2018-11-14T10:23:38.247Z,39.63
2018-11-14T10:26:12.325Z,42.17
2018-11-14T10:28:46.394Z,41.53
2018-11-14T10:31:20.519Z,47.03
2018-11-14T10:33:54.610Z,42.33
2018-11-14T10:36:28.588Z,40.50
2018-11-14T10:39:02.877Z,49.77
2018-11-14T10:41:37.439Z,45.33
2018-11-14T10:44:12.018Z,50.13
2018-11-14T10:46:46.299Z,41.73
2018-11-14T10:49:20.409Z,63.50
2018-11-14T10:51:55.217Z,54.03
2018-11-14T10:54:29.358Z,54.57
2018-11-14T10:57:03.731Z,47.23
2018-11-14T10:59:37.920Z,45.37
2018-11-14T11:02:17.732Z,48.53
2018-11-14T11:04:57.075Z,50.20
2018-11-14T11:07:36.526Z,50.30
2018-11-14T11:10:15.903Z,51.90
2018-11-14T11:12:55.284Z,47.00
2018-11-14T11:15:34.494Z,40.70
2018-11-14T11:18:11.714Z,52.33
2018-11-14T11:20:45.893Z,46.80
2018-11-14T11:23:20.393Z,64.63
2018-11-14T11:25:54.652Z,44.20
2018-11-14T11:28:29.499Z,44.67
2018-11-14T11:31:03.865Z,59.73
2018-11-14T11:33:38.429Z,43.97
2018-11-14T11:36:12.598Z,51.23
2018-11-14T11:38:46.850Z,48.93
2018-11-14T11:41:21.085Z,44.50
2018-11-14T11:43:55.415Z,49.13
2018-11-14T11:46:29.449Z,45.00
2018-11-14T11:49:03.537Z,47.40
2018-11-14T11:51:37.835Z,48.93
2018-11-14T11:54:11.813Z,43.33
2018-11-14T11:56:46.058Z,48.73
2018-11-14T11:59:20.908Z,49.83
2018-11-14T12:01:55.534Z,40.53
2018-11-14T12:04:30.135Z,45.10
2018-11-14T12:07:03.967Z,39.27
2018-11-14T12:09:38.074Z,36.67
2018-11-14T12:12:12.299Z,36.53
2018-11-14T12:14:46.485Z,41.47
2018-11-14T12:17:20.777Z,41.77
2018-11-14T12:19:55.207Z,39.43
2018-11-14T12:22:29.311Z,42.90
2018-11-14T12:25:03.932Z,45.00
2018-11-14T12:27:38.234Z,53.27
2018-11-14T12:30:15.141Z,46.90
2018-11-14T12:32:49.064Z,42.87
2018-11-14T12:35:23.172Z,51.40
2018-11-14T12:37:57.295Z,46.67
2018-11-14T12:40:31.526Z,47.17
2018-11-14T12:43:05.761Z,36.00
2018-11-14T12:45:39.742Z,41.53
2018-11-14T12:48:14.095Z,38.67
2018-11-14T12:50:48.215Z,36.73
2018-11-14T12:53:23.399Z,35.53
2018-11-14T12:55:57.554Z,45.83
2018-11-14T12:58:32.005Z,38.60
2018-11-14T13:01:06.255Z,40.27
2018-11-14T13:03:40.947Z,46.70
2018-11-14T13:06:15.019Z,54.77
2018-11-14T13:08:49.130Z,41.67
2018-11-14T13:11:23.401Z,41.27
2018-11-14T13:13:57.455Z,39.43
2018-11-14T13:16:31.858Z,44.93
2018-11-14T13:19:06.260Z,35.60
2018-11-14T13:32:42.893Z,39.97
2018-11-14T13:35:18.539Z,43.07
2018-11-14T13:37:52.731Z,41.07
2018-11-14T13:43:07.899Z,38.67
2018-11-14T13:45:42.136Z,37.80
2018-11-14T13:48:16.098Z,39.03
2018-11-14T13:50:55.125Z,39.73
2018-11-14T13:53:29.145Z,37.70
2018-11-14T13:56:03.527Z,36.90
2018-11-14T13:58:37.750Z,41.43
2018-11-14T14:01:15.333Z,60.03
2018-11-14T14:03:49.440Z,47.23
2018-11-14T14:06:23.609Z,44.80
2018-11-14T14:08:57.757Z,47.27
2018-11-14T14:11:32.128Z,49.23
2018-11-14T14:14:14.834Z,45.10
2018-11-14T14:16:49.137Z,44.47
2018-11-14T14:19:23.614Z,43.40
2018-11-14T14:21:57.767Z,44.13
2018-11-14T14:24:31.850Z,42.33
2018-11-14T14:27:06.114Z,42.90
2018-11-14T14:29:40.260Z,44.20
2018-11-14T14:32:14.701Z,38.77
2018-11-14T14:34:48.784Z,47.10
2018-11-14T14:37:22.956Z,39.77
2018-11-14T14:39:57.597Z,42.87
2018-11-14T14:42:32.603Z,45.23
2018-11-14T14:45:07.377Z,50.97
2018-11-14T14:47:41.880Z,48.37
2018-11-14T14:50:18.843Z,44.97
2018-11-14T14:52:53.362Z,50.30
2018-11-14T14:55:27.560Z,51.93
2018-11-14T14:58:01.893Z,47.90
2018-11-14T15:00:36.237Z,50.13
2018-11-14T15:03:17.283Z,46.63
2018-11-14T15:05:51.732Z,44.20
2018-11-14T15:08:25.898Z,40.83
2018-11-14T15:11:00.133Z,37.63
2018-11-14T15:13:34.435Z,41.00
2018-11-14T15:16:08.570Z,46.30
2018-11-14T15:18:43.026Z,47.17
2018-11-14T15:21:17.230Z,42.67
2018-11-14T15:23:51.371Z,40.43
2018-11-14T15:26:25.513Z,45.33
2018-11-14T15:31:39.594Z,36.17
2018-11-14T15:34:13.708Z,48.00
2018-11-14T15:36:47.862Z,42.70
2018-11-14T15:39:22.194Z,57.30
2018-11-14T15:41:56.464Z,43.87
2018-11-14T15:44:31.098Z,47.30
2018-11-14T15:47:05.418Z,45.87
2018-11-14T15:49:39.736Z,40.50
2018-11-14T15:52:13.845Z,40.17
2018-11-14T15:54:48.434Z,53.70
2018-11-14T15:57:22.557Z,61.80
2018-11-14T15:59:56.829Z,40.30
2018-11-14T16:02:31.364Z,41.80
2018-11-14T16:05:07.557Z,44.50
2018-11-14T16:07:43.875Z,45.83
2018-11-14T16:10:19.264Z,51.10
2018-11-14T16:12:53.524Z,43.23
2018-11-14T16:15:30.516Z,49.63
2018-11-14T16:18:05.354Z,57.93
2018-11-14T16:20:39.553Z,54.63
2018-11-14T16:23:13.881Z,56.10
2018-11-14T16:25:48.147Z,44.77
2018-11-14T16:28:22.676Z,55.53
2018-11-14T16:30:56.906Z,47.90
2018-11-14T16:33:30.974Z,64.80
2018-11-14T16:36:05.475Z,55.00
2018-11-14T16:38:39.593Z,33.33
2018-11-14T16:41:13.664Z,45.40
2018-11-14T16:43:47.902Z,39.70
2018-11-14T16:46:22.098Z,43.80
2018-11-14T16:48:56.547Z,51.13
2018-11-14T16:51:30.822Z,40.47
2018-11-14T16:54:05.220Z,54.50
2018-11-14T16:56:39.778Z,49.50
2018-11-14T16:59:14.000Z,50.83
2018-11-14T17:01:48.511Z,55.53
2018-11-14T17:04:22.852Z,47.53
2018-11-14T17:06:56.997Z,46.97
2018-11-14T17:09:31.302Z,53.73
2018-11-14T17:12:05.589Z,57.80
2018-11-14T17:14:39.896Z,56.27
2018-11-14T17:17:14.249Z,64.33
2018-11-14T17:19:49.003Z,59.60
2018-11-14T17:22:23.157Z,58.77
2018-11-14T17:24:57.403Z,54.60
2018-11-14T17:27:31.519Z,48.33
2018-11-14T17:30:07.611Z,69.23
2018-11-14T17:32:42.230Z,51.30
2018-11-14T17:35:16.686Z,60.50
2018-11-14T17:37:50.851Z,54.90
2018-11-14T17:40:26.756Z,63.23
2018-11-14T17:43:03.139Z,69.80
2018-11-14T17:45:37.538Z,72.10
2018-11-14T17:48:12.241Z,66.33
2018-11-14T17:50:46.416Z,74.27
2018-11-14T17:56:00.750Z,67.60
2018-11-14T17:58:34.955Z,65.90
2018-11-14T18:01:09.334Z,71.37
2018-11-14T18:03:43.560Z,74.03
2018-11-14T18:06:17.974Z,87.10
2018-11-14T18:08:52.245Z,80.87
2018-11-14T18:11:26.322Z,76.57
2018-11-14T18:14:00.792Z,87.60
2018-11-14T18:16:34.753Z,75.33
2018-11-14T18:19:08.909Z,78.67
2018-11-14T18:21:43.130Z,83.13
2018-11-14T18:24:17.610Z,82.73
2018-11-14T18:26:52.232Z,77.87
2018-11-14T18:29:26.393Z,80.73
2018-11-14T18:32:00.613Z,92.63
2018-11-14T18:34:34.591Z,62.27
2018-11-14T18:37:08.710Z,63.83
2018-11-14T18:39:43.091Z,65.27
2018-11-14T18:42:17.131Z,66.40
2018-11-14T18:44:51.774Z,57.50
2018-11-14T18:47:26.355Z,76.23
2018-11-14T18:50:00.506Z,59.80
2018-11-14T18:52:34.563Z,74.10
2018-11-14T18:55:10.233Z,74.87
2018-11-14T18:57:44.579Z,77.20
2018-11-14T19:00:21.486Z,78.00
2018-11-14T19:02:55.824Z,88.47
2018-11-14T19:05:30.293Z,90.37
2018-11-14T19:08:05.392Z,93.63
2018-11-14T19:10:39.689Z,85.67
2018-11-14T19:13:13.747Z,99.93
2018-11-14T19:15:47.847Z,92.33
2018-11-14T19:18:22.020Z,74.00
2018-11-14T19:20:55.846Z,100.73
2018-11-14T19:23:29.999Z,95.03
2018-11-14T19:26:04.103Z,88.50
2018-11-14T19:28:38.087Z,76.10
2018-11-14T19:31:12.098Z,87.80
2018-11-14T19:33:46.187Z,98.83
2018-11-14T19:36:20.259Z,97.23
2018-11-14T19:38:54.269Z,107.63
2018-11-14T19:41:28.656Z,86.63
2018-11-14T19:44:02.826Z,93.07
2018-11-14T19:46:36.809Z,96.80
2018-11-14T19:49:10.802Z,96.93
2018-11-14T19:51:44.974Z,96.53
2018-11-14T19:54:18.998Z,108.80
2018-11-14T19:56:53.008Z,133.73
2018-11-14T19:59:27.147Z,101.03
2018-11-14T20:02:01.236Z,104.37
2018-11-14T20:04:35.269Z,123.77
2018-11-14T20:07:09.398Z,128.83
2018-11-14T20:09:43.485Z,153.47
2018-11-14T20:12:17.546Z,117.83
2018-11-14T20:14:51.621Z,101.57
2018-11-14T20:17:25.696Z,117.03
2018-11-14T20:19:59.740Z,113.10
2018-11-14T20:22:33.857Z,101.60
2018-11-14T20:25:08.209Z,81.70
2018-11-14T20:27:42.741Z,98.30
2018-11-14T20:30:18.655Z,88.40
2018-11-14T20:32:53.667Z,93.13
2018-11-14T20:35:28.349Z,95.67
2018-11-14T20:38:02.352Z,100.43
2018-11-14T20:40:38.640Z,87.13
2018-11-14T20:43:12.778Z,79.30
2018-11-14T20:45:46.868Z,95.00
2018-11-14T20:48:20.785Z,57.20
2018-11-14T20:50:54.802Z,66.33
2018-11-14T20:53:28.851Z,54.00
2018-11-14T20:56:02.900Z,68.83
2018-11-14T20:58:36.988Z,72.13
2018-11-14T21:01:11.031Z,72.47
2018-11-14T21:03:44.928Z,70.47
2018-11-14T21:06:18.939Z,67.23
2018-11-14T21:08:52.921Z,55.57
2018-11-14T21:11:26.794Z,62.53
2018-11-14T21:14:00.963Z,55.63
2018-11-14T21:16:35.021Z,62.23
2018-11-14T21:19:09.006Z,52.83
2018-11-14T21:21:42.998Z,55.70
2018-11-14T21:24:17.187Z,68.57
2018-11-14T21:26:51.427Z,66.67
2018-11-14T21:29:25.537Z,64.60
2018-11-14T21:31:59.489Z,66.37
2018-11-14T21:34:33.638Z,54.53
2018-11-14T21:37:07.609Z,67.43
2018-11-14T21:39:41.595Z,67.77
2018-11-14T21:42:15.557Z,55.17
2018-11-14T21:44:49.502Z,54.33
2018-11-14T21:47:28.813Z,55.87
2018-11-14T21:50:03.143Z,54.73
2018-11-14T21:52:37.303Z,58.27
2018-11-14T21:55:12.046Z,58.20
2018-11-14T21:57:46.089Z,56.43
2018-11-14T22:00:23.431Z,58.63
2018-11-14T22:02:57.480Z,57.50
2018-11-14T22:05:31.556Z,56.87
2018-11-14T22:08:05.728Z,50.23
2018-11-14T22:10:39.805Z,65.80
2018-11-14T22:13:13.774Z,54.23
2018-11-14T22:15:47.711Z,48.83
2018-11-14T22:18:21.678Z,53.83
2018-11-14T22:20:55.806Z,42.50
2018-11-14T22:23:34.339Z,40.83
2018-11-14T22:26:08.263Z,46.17
2018-11-14T22:28:42.164Z,49.43
2018-11-14T22:31:16.167Z,52.17
2018-11-14T22:33:50.134Z,45.37
2018-11-14T22:36:24.254Z,47.07
2018-11-14T22:38:58.248Z,42.40
2018-11-14T22:41:32.393Z,50.03
2018-11-14T22:44:06.528Z,51.30
2018-11-14T22:46:40.581Z,53.10
2018-11-14T22:49:14.626Z,54.10
2018-11-14T22:51:48.604Z,53.73
2018-11-14T22:54:22.823Z,65.50
2018-11-14T22:56:56.880Z,66.43
2018-11-14T22:59:30.945Z,71.60
2018-11-14T23:02:05.317Z,58.53
2018-11-14T23:04:39.225Z,61.63
2018-11-14T23:07:13.152Z,66.23
2018-11-14T23:09:47.072Z,73.20
2018-11-14T23:12:20.994Z,68.87
2018-11-14T23:14:54.906Z,57.27
2018-11-14T23:17:29.018Z,68.77
2018-11-14T23:20:03.110Z,54.50
2018-11-14T23:22:37.058Z,59.60
2018-11-14T23:25:11.693Z,60.37
2018-11-14T23:27:46.919Z,64.67
2018-11-14T23:30:22.038Z,51.50
2018-11-14T23:32:56.939Z,61.80
2018-11-14T23:35:31.951Z,55.90
2018-11-14T23:38:06.816Z,51.37
2018-11-14T23:40:40.870Z,54.30
2018-11-14T23:43:15.178Z,57.20
2018-11-14T23:45:49.049Z,59.47
2018-11-14T23:48:23.071Z,60.23
2018-11-14T23:50:57.015Z,56.03
2018-11-14T23:53:31.011Z,55.00
2018-11-14T23:56:05.235Z,64.93
2018-11-14T23:58:39.226Z,65.63
